Météo Nord-Pas-de-Calais   La météo au plus près de chez vous

Station météorologique

Observations météo à Etoile (26124)

26124001 145 m Dernier relevé à 23:48
20.7°C
Humidité 48 % Vent 9.4 km/h

Journée consultée

Mardi 1 Septembre 2026

Synthèse de la journée

Périodes de référence en UTC

Température maximale

30.1°C

à 18:00

06h 06h

Température minimale

16.7°C

à 06:00

18h 18h

Rafale maximale

39 km/h

à 15:00

00h 00h

Précipitations

0 mm

Cumul quotidien

06h 06h

Ensoleillement

11h 12 mins

Durée quotidienne

00h 00h

Graphiques de la journée

Heure locale Réduire

Données détaillées

Relevés météo

Pas de 6 minutes Afficher les relevés infra-horaires
Relevés météo détaillés à Etoile pour le Mardi 1 Septembre 2026
Heure Température °C Point de rosée °C Humidité % Vent moyen (raf.), km/h Précipitations mm Température à 10 cm °C Température à 20 cm °C Ensoleillement min Rayonnement global W/m²
23:48 20.7 °C 11.9 °C 57 % 9 km/h (11 km/h) 0 mm0 mm 23.8 °C 23.6 °C 0 min 0 W/m²
23:42 20.7 °C 11.9 °C 57 % 8 km/h (10 km/h) 0 mm0 mm 23.8 °C 23.6 °C 0 min 0 W/m²
23:36 21.2 °C 11.5 °C 54 % 7 km/h (10 km/h) 0 mm0 mm 23.8 °C 23.6 °C 0 min 0 W/m²
23:30 21.6 °C 11.6 °C 53 % 7 km/h (12 km/h) 0 mm0 mm 23.8 °C 23.6 °C 0 min 0 W/m²
23:24 21.7 °C 11.4 °C 52 % 8 km/h (13 km/h) 0 mm0 mm 23.8 °C 23.6 °C 0 min 0 W/m²
23:18 21.5 °C 11.5 °C 53 % 9 km/h (13 km/h) 0 mm0 mm 23.8 °C 23.6 °C 0 min 0 W/m²
23:12 21.6 °C 11.3 °C 52 % 8 km/h (11 km/h) 0 mm0 mm 23.9 °C 23.6 °C 0 min 0 W/m²
23:06 22 °C 11.4 °C 51 % 8 km/h (13 km/h) 0 mm0 mm 23.9 °C 23.6 °C 0 min 0 W/m²
23:00 22.7 °C 11.1 °C 48 % 10 km/h (13 km/h) 0 mm0 mm 23.9 °C 23.6 °C 0 min 0 W/m²
22:54 22.8 °C 11.2 °C 48 % 10 km/h (12 km/h) 0 mm0 mm 23.9 °C 23.6 °C 0 min 0 W/m²
22:48 22.8 °C 11.2 °C 48 % 9 km/h (12 km/h) 0 mm0 mm 23.9 °C 23.6 °C 0 min 0 W/m²
22:42 22.8 °C 11.2 °C 48 % 7 km/h (12 km/h) 0 mm0 mm 23.9 °C 23.6 °C 0 min 0 W/m²
22:36 22.5 °C 11.2 °C 49 % 7 km/h (10 km/h) 0 mm0 mm 23.9 °C 23.6 °C 0 min 0 W/m²
22:30 22.6 °C 11.3 °C 49 % 8 km/h (10 km/h) 0 mm0 mm 23.9 °C 23.6 °C 0 min 0 W/m²
22:24 22.6 °C 11.3 °C 49 % 7 km/h (10 km/h) 0 mm0 mm 23.9 °C 23.6 °C 0 min 0 W/m²
22:18 22.6 °C 11.3 °C 49 % 6 km/h (8 km/h) 0 mm0 mm 23.9 °C 23.6 °C 0 min 0 W/m²
22:12 23.1 °C 11.2 °C 47 % 4 km/h (7 km/h) 0 mm0 mm 24 °C 23.6 °C 0 min 0 W/m²
22:06 23.3 °C 11 °C 46 % 3 km/h (7 km/h) 0 mm0 mm 24 °C 23.6 °C 0 min 0 W/m²
22:00 23.3 °C 11.4 °C 47 % 3 km/h (8 km/h) 0 mm0 mm 24 °C 23.6 °C 0 min 0 W/m²
21:54 23.7 °C 11.1 °C 45 % 5 km/h (10 km/h) 0 mm0 mm 24 °C 23.6 °C 0 min 0 W/m²
21:48 24 °C 11 °C 44 % 8 km/h (14 km/h) 0 mm0 mm 24 °C 23.6 °C 0 min 0 W/m²
21:42 24.4 °C 11 °C 43 % 9 km/h (14 km/h) 0 mm0 mm 24 °C 23.6 °C 0 min 0 W/m²
21:36 24.5 °C 10.7 °C 42 % 9 km/h (14 km/h) 0 mm0 mm 24 °C 23.6 °C 0 min 0 W/m²
21:30 24.5 °C 11.1 °C 43 % 10 km/h (16 km/h) 0 mm0 mm 24 °C 23.6 °C 0 min 0 W/m²
21:24 24.5 °C 11.1 °C 43 % 12 km/h (17 km/h) 0 mm0 mm 24 °C 23.6 °C 0 min 0 W/m²
21:18 24.5 °C 11.1 °C 43 % 12 km/h (17 km/h) 0 mm0 mm 24 °C 23.6 °C 0 min 0 W/m²
21:12 24.5 °C 11.4 °C 44 % 10 km/h (15 km/h) 0 mm0 mm 24 °C 23.6 °C 0 min 0 W/m²
21:06 24.6 °C 11.5 °C 44 % 10 km/h (14 km/h) 0 mm0 mm 24 °C 23.6 °C 0 min 0 W/m²
21:00 24.7 °C 11.6 °C 44 % 10 km/h (14 km/h) 0 mm0 mm 24 °C 23.6 °C 0 min 0 W/m²
20:54 24.8 °C 11.7 °C 44 % 10 km/h (16 km/h) 0 mm0 mm 24 °C 23.5 °C 0 min 0 W/m²
20:48 25 °C 11.2 °C 42 % 11 km/h (17 km/h) 0 mm0 mm 24 °C 23.5 °C 0 min 0 W/m²
20:42 25.4 °C 11.2 °C 41 % 11 km/h (17 km/h) 0 mm0 mm 24 °C 23.5 °C 0 min 0 W/m²
20:36 25.6 °C 11 °C 40 % 11 km/h (17 km/h) 0 mm0 mm 24 °C 23.5 °C 0 min 0 W/m²
20:30 25.9 °C 10.9 °C 39 % 12 km/h (18 km/h) 0 mm0 mm 24 °C 23.5 °C 0 min 0 W/m²
20:24 26 °C 11 °C 39 % 14 km/h (19 km/h) 0 mm0 mm 24 °C 23.5 °C 0 min 0 W/m²
20:18 26 °C 11 °C 39 % 14 km/h (22 km/h) 0 mm0 mm 24 °C 23.5 °C 0 min 0 W/m²
20:12 26.1 °C 10.7 °C 38 % 13 km/h (19 km/h) 0 mm0 mm 24 °C 23.5 °C 0 min 0 W/m²
20:06 26.5 °C 11 °C 38 % 14 km/h (20 km/h) 0 mm0 mm 24 °C 23.5 °C 0 min 2.1 W/m²
20:00 26.7 °C 10.8 °C 37 % 14 km/h (20 km/h) 0 mm0 mm 24 °C 23.5 °C 0 min 5.8 W/m²
19:54 26.8 °C 10.9 °C 37 % 14 km/h (24 km/h) 0 mm0 mm 24 °C 23.4 °C 0 min 8.6 W/m²
19:48 27 °C 10.7 °C 36 % 15 km/h (23 km/h) 0 mm0 mm 24 °C 23.4 °C 4 min 12.4 W/m²
19:42 27.2 °C 10.8 °C 36 % 16 km/h (23 km/h) 0 mm0 mm 24 °C 23.4 °C 6 min 17.7 W/m²
19:36 27.4 °C 11 °C 36 % 16 km/h (23 km/h) 0 mm0 mm 24 °C 23.4 °C 6 min 24.4 W/m²
19:30 27.4 °C 11 °C 36 % 16 km/h (23 km/h) 0 mm0 mm 24 °C 23.4 °C 6 min 25.3 W/m²
19:24 27.5 °C 10.7 °C 35 % 16 km/h (23 km/h) 0 mm0 mm 24 °C 23.4 °C 4 min 27.4 W/m²
19:18 27.6 °C 10.8 °C 35 % 15 km/h (22 km/h) 0 mm0 mm 24 °C 23.4 °C 0 min 26 W/m²
19:12 27.7 °C 10.8 °C 35 % 15 km/h (22 km/h) 0 mm0 mm 24 °C 23.4 °C 0 min 27.2 W/m²
19:06 27.8 °C 10.5 °C 34 % 17 km/h (24 km/h) 0 mm0 mm 24 °C 23.4 °C 0 min 24.9 W/m²
19:00 28 °C 10.7 °C 34 % 18 km/h (26 km/h) 0 mm0 mm 24 °C 23.4 °C 0 min 27.3 W/m²
18:54 28.1 °C 10.8 °C 34 % 19 km/h (27 km/h) 0 mm0 mm 24 °C 23.4 °C 0 min 33.5 W/m²
18:48 28.4 °C 11 °C 34 % 18 km/h (28 km/h) 0 mm0 mm 24 °C 23.4 °C 1 min 46.9 W/m²
18:42 28.7 °C 11.3 °C 34 % 18 km/h (28 km/h) 0 mm0 mm 23.9 °C 23.3 °C 6 min 65.2 W/m²
18:36 28.7 °C 10.4 °C 32 % 20 km/h (28 km/h) 0 mm0 mm 23.9 °C 23.3 °C 6 min 70.6 W/m²
18:30 28.7 °C 10.4 °C 32 % 21 km/h (31 km/h) 0 mm0 mm 23.9 °C 23.3 °C 3 min 65.9 W/m²
18:24 28.7 °C 9.9 °C 31 % 20 km/h (31 km/h) 0 mm0 mm 23.9 °C 23.3 °C 0 min 54.6 W/m²
18:18 29 °C 10.2 °C 31 % 20 km/h (31 km/h) 0 mm0 mm 23.9 °C 23.3 °C 0 min 51.6 W/m²
18:12 28.9 °C 10.5 °C 32 % 21 km/h (31 km/h) 0 mm0 mm 23.9 °C 23.3 °C 2 min 74.7 W/m²
18:06 29.1 °C 10.7 °C 32 % 19 km/h (29 km/h) 0 mm0 mm 23.8 °C 23.3 °C 6 min 104.7 W/m²
18:00 29.2 °C 10.3 °C 31 % 20 km/h (27 km/h) 0 mm0 mm 23.8 °C 23.3 °C 6 min 112.1 W/m²
17:54 29.4 °C 10 °C 30 % 20 km/h (30 km/h) 0 mm0 mm 23.8 °C 23.3 °C 5 min 102.8 W/m²
17:48 29.5 °C 10.1 °C 30 % 19 km/h (27 km/h) 0 mm0 mm 23.8 °C 23.2 °C 5 min 111.4 W/m²
17:42 29.5 °C 10.6 °C 31 % 19 km/h (30 km/h) 0 mm0 mm 23.8 °C 23.2 °C 6 min 113.8 W/m²
17:36 29.7 °C 10.8 °C 31 % 16 km/h (27 km/h) 0 mm0 mm 23.8 °C 23.2 °C 5 min 123.8 W/m²
17:30 29.5 °C 10.6 °C 31 % 18 km/h (31 km/h) 0 mm0 mm 23.7 °C 23.2 °C 4 min 125.6 W/m²
17:24 29.8 °C 10.4 °C 30 % 19 km/h (31 km/h) 0 mm0 mm 23.7 °C 23.2 °C 6 min 147.3 W/m²
17:18 29.9 °C 10.4 °C 30 % 18 km/h (28 km/h) 0 mm0 mm 23.7 °C 23.2 °C 6 min 166.1 W/m²
17:12 29.7 °C 10.3 °C 30 % 18 km/h (28 km/h) 0 mm0 mm 23.7 °C 23.2 °C 6 min 153.9 W/m²
17:06 29.9 °C 10.4 °C 30 % 21 km/h (33 km/h) 0 mm0 mm 23.7 °C 23.2 °C 6 min 171.4 W/m²
17:00 29.6 °C 10.2 °C 30 % 22 km/h (33 km/h) 0 mm0 mm 23.6 °C 23.2 °C 6 min 191.8 W/m²
16:54 29.5 °C 10.6 °C 31 % 21 km/h (33 km/h) 0 mm0 mm 23.6 °C 23.2 °C 6 min 170.4 W/m²
16:48 29.8 °C 11.3 °C 32 % 23 km/h (33 km/h) 0 mm0 mm 23.6 °C 23.1 °C 6 min 192 W/m²
16:42 29.5 °C 11.1 °C 32 % 24 km/h (32 km/h) 0 mm0 mm 23.6 °C 23.1 °C 6 min 200.5 W/m²
16:36 29.7 °C 11.2 °C 32 % 23 km/h (31 km/h) 0 mm0 mm 23.5 °C 23.1 °C 6 min 191.1 W/m²
16:30 29.6 °C 11.6 °C 33 % 21 km/h (31 km/h) 0 mm0 mm 23.5 °C 23.1 °C 6 min 203.5 W/m²
16:24 29.6 °C 11.6 °C 33 % 24 km/h (34 km/h) 0 mm0 mm 23.5 °C 23.1 °C 6 min 213.3 W/m²
16:18 29.4 °C 11 °C 32 % 23 km/h (33 km/h) 0 mm0 mm 23.4 °C 23.1 °C 6 min 215.7 W/m²
16:12 29.5 °C 11.5 °C 33 % 22 km/h (31 km/h) 0 mm0 mm 23.4 °C 23.1 °C 6 min 226.4 W/m²
16:06 29.5 °C 11.5 °C 33 % 21 km/h (31 km/h) 0 mm0 mm 23.4 °C 23.1 °C 6 min 216.8 W/m²
16:00 29.5 °C 12 °C 34 % 21 km/h (31 km/h) 0 mm0 mm 23.4 °C 23.1 °C 6 min 231 W/m²
15:54 29.7 °C 12.2 °C 34 % 21 km/h (31 km/h) 0 mm0 mm 23.3 °C 23.1 °C 6 min 235.5 W/m²
15:48 29.2 °C 11.7 °C 34 % 22 km/h (31 km/h) 0 mm0 mm 23.3 °C 23.1 °C 6 min 239.2 W/m²
15:42 29.2 °C 12.2 °C 35 % 21 km/h (32 km/h) 0 mm0 mm 23.3 °C 23 °C 6 min 242.5 W/m²
15:36 29.4 °C 11.9 °C 34 % 20 km/h (29 km/h) 0 mm0 mm 23.3 °C 23.1 °C 6 min 246.2 W/m²
15:30 29.3 °C 12.3 °C 35 % 21 km/h (32 km/h) 0 mm0 mm 23.2 °C 23 °C 6 min 250.4 W/m²
15:24 29.2 °C 11.7 °C 34 % 21 km/h (32 km/h) 0 mm0 mm 23.2 °C 23 °C 6 min 254.1 W/m²
15:18 29 °C 11.5 °C 34 % 22 km/h (31 km/h) 0 mm0 mm 23.2 °C 23 °C 6 min 258.3 W/m²
15:12 29.4 °C 11.9 °C 34 % 21 km/h (35 km/h) 0 mm0 mm 23.2 °C 23 °C 6 min 261.8 W/m²
15:06 29.2 °C 11.7 °C 34 % 20 km/h (39 km/h) 0 mm0 mm 23.1 °C 23 °C 6 min 265 W/m²
15:00 29.3 °C 12.3 °C 35 % 19 km/h (39 km/h) 0 mm0 mm 23.1 °C 23 °C 6 min 268.1 W/m²
14:54 29 °C 12.4 °C 36 % 18 km/h (30 km/h) 0 mm0 mm 23.1 °C 23 °C 6 min 271.9 W/m²
14:48 28.7 °C 11.7 °C 35 % 21 km/h (32 km/h) 0 mm0 mm 23.1 °C 23 °C 6 min 275.6 W/m²
14:42 28.5 °C 12 °C 36 % 22 km/h (32 km/h) 0 mm0 mm 23 °C 23 °C 6 min 278.9 W/m²
14:36 28.7 °C 12.2 °C 36 % 20 km/h (31 km/h) 0 mm0 mm 23 °C 23 °C 6 min 280.8 W/m²
14:30 28.3 °C 12.2 °C 37 % 21 km/h (33 km/h) 0 mm0 mm 23 °C 23 °C 6 min 283 W/m²
14:24 28.4 °C 12.3 °C 37 % 22 km/h (33 km/h) 0 mm0 mm 23 °C 23 °C 6 min 285.4 W/m²
14:18 28.2 °C 12.1 °C 37 % 20 km/h (30 km/h) 0 mm0 mm 23 °C 23 °C 6 min 287.3 W/m²
14:12 28.2 °C 12.5 °C 38 % 19 km/h (29 km/h) 0 mm0 mm 22.9 °C 23 °C 6 min 289 W/m²
14:06 28.1 °C 12.4 °C 38 % 19 km/h (29 km/h) 0 mm0 mm 22.9 °C 23 °C 6 min 290 W/m²
14:00 27.9 °C 12.3 °C 38 % 20 km/h (30 km/h) 0 mm0 mm 22.9 °C 23 °C 6 min 291.8 W/m²
13:54 28.1 °C 12.4 °C 38 % 18 km/h (30 km/h) 0 mm0 mm 22.9 °C 23 °C 6 min 292.6 W/m²
13:48 27.9 °C 12.7 °C 39 % 18 km/h (30 km/h) 0 mm0 mm 22.9 °C 23 °C 6 min 292.9 W/m²
13:42 27.8 °C 12.2 °C 38 % 21 km/h (32 km/h) 0 mm0 mm 22.8 °C 23 °C 6 min 293.9 W/m²
13:36 27.8 °C 12.6 °C 39 % 22 km/h (32 km/h) 0 mm0 mm 22.8 °C 23 °C 6 min 294.4 W/m²
13:30 27.7 °C 12.5 °C 39 % 23 km/h (37 km/h) 0 mm0 mm 22.8 °C 23 °C 6 min 294.2 W/m²
13:24 27.7 °C 12.5 °C 39 % 23 km/h (37 km/h) 0 mm0 mm 22.8 °C 23 °C 6 min 293.8 W/m²
13:18 27.6 °C 12.8 °C 40 % 20 km/h (34 km/h) 0 mm0 mm 22.8 °C 23 °C 6 min 292.9 W/m²
13:12 27.4 °C 12.6 °C 40 % 20 km/h (29 km/h) 0 mm0 mm 22.8 °C 23 °C 6 min 293.2 W/m²
13:06 27.4 °C 13 °C 41 % 22 km/h (30 km/h) 0 mm0 mm 22.7 °C 23 °C 6 min 292.9 W/m²
13:00 26.9 °C 12.2 °C 40 % 23 km/h (32 km/h) 0 mm0 mm 22.7 °C 23 °C 6 min 292.5 W/m²
12:54 27.1 °C 12.7 °C 41 % 21 km/h (31 km/h) 0 mm0 mm 22.7 °C 23 °C 6 min 291.6 W/m²
12:48 27.1 °C 12.7 °C 41 % 20 km/h (31 km/h) 0 mm0 mm 22.7 °C 23 °C 6 min 291.2 W/m²
12:42 26.8 °C 12.8 °C 42 % 19 km/h (31 km/h) 0 mm0 mm 22.7 °C 23 °C 6 min 289.8 W/m²
12:36 26.7 °C 13.1 °C 43 % 20 km/h (34 km/h) 0 mm0 mm 22.7 °C 23 °C 6 min 288.8 W/m²
12:30 26.7 °C 12.7 °C 42 % 23 km/h (34 km/h) 0 mm0 mm 22.7 °C 23 °C 6 min 287.7 W/m²
12:24 26.4 °C 12.5 °C 42 % 22 km/h (35 km/h) 0 mm0 mm 22.7 °C 23 °C 6 min 285.2 W/m²
12:18 26.3 °C 12.7 °C 43 % 22 km/h (32 km/h) 0 mm0 mm 22.6 °C 23.1 °C 6 min 283.3 W/m²
12:12 26.1 °C 12.9 °C 44 % 22 km/h (30 km/h) 0 mm0 mm 22.6 °C 23 °C 6 min 280.8 W/m²
12:06 25.9 °C 13.1 °C 45 % 23 km/h (33 km/h) 0 mm0 mm 22.6 °C 23 °C 6 min 277.7 W/m²
12:00 25.9 °C 12.7 °C 44 % 19 km/h (33 km/h) 0 mm0 mm 22.6 °C 23.1 °C 6 min 274.4 W/m²
11:54 25.9 °C 13.4 °C 46 % 17 km/h (30 km/h) 0 mm0 mm 22.6 °C 23.1 °C 6 min 271.2 W/m²
11:48 25.5 °C 13 °C 46 % 21 km/h (33 km/h) 0 mm0 mm 22.6 °C 23.1 °C 6 min 268.3 W/m²
11:42 25.2 °C 13.1 °C 47 % 21 km/h (30 km/h) 0 mm0 mm 22.6 °C 23.1 °C 6 min 264.8 W/m²
11:36 25.4 °C 13.3 °C 47 % 20 km/h (31 km/h) 0 mm0 mm 22.6 °C 23.1 °C 6 min 261 W/m²
11:30 25.2 °C 13.4 °C 48 % 22 km/h (34 km/h) 0 mm0 mm 22.6 °C 23.1 °C 6 min 257.3 W/m²
11:24 24.5 °C 12.8 °C 48 % 25 km/h (36 km/h) 0 mm0 mm 22.6 °C 23.1 °C 6 min 253.7 W/m²
11:18 24.5 °C 12.8 °C 48 % 24 km/h (36 km/h) 0 mm0 mm 22.6 °C 23.1 °C 6 min 249.7 W/m²
11:12 24.8 °C 13.4 °C 49 % 22 km/h (33 km/h) 0 mm0 mm 22.6 °C 23.1 °C 6 min 245 W/m²
11:06 24.3 °C 13.2 °C 50 % 22 km/h (33 km/h) 0 mm0 mm 22.6 °C 23.1 °C 6 min 240.9 W/m²
11:00 24.1 °C 13 °C 50 % 24 km/h (33 km/h) 0 mm0 mm 22.6 °C 23.1 °C 6 min 236.8 W/m²
10:54 24 °C 12.9 °C 50 % 22 km/h (33 km/h) 0 mm0 mm 22.6 °C 23.1 °C 6 min 232.2 W/m²
10:48 23.7 °C 13 °C 51 % 26 km/h (37 km/h) 0 mm0 mm 22.6 °C 23.1 °C 6 min 227.6 W/m²
10:42 23.5 °C 13.1 °C 52 % 24 km/h (37 km/h) 0 mm0 mm 22.7 °C 23.1 °C 6 min 222.7 W/m²
10:36 23.5 °C 12.8 °C 51 % 23 km/h (36 km/h) 0 mm0 mm 22.7 °C 23.2 °C 6 min 217.1 W/m²
10:30 22.9 °C 12.5 °C 52 % 25 km/h (38 km/h) 0 mm0 mm 22.7 °C 23.2 °C 6 min 212 W/m²
10:24 22.9 °C 12.5 °C 52 % 19 km/h (31 km/h) 0 mm0 mm 22.7 °C 23.2 °C 6 min 206.5 W/m²
10:18 22.8 °C 12.7 °C 53 % 19 km/h (27 km/h) 0 mm0 mm 22.7 °C 23.2 °C 6 min 201 W/m²
10:12 22.5 °C 12.7 °C 54 % 21 km/h (31 km/h) 0 mm0 mm 22.7 °C 23.2 °C 6 min 195.5 W/m²
10:06 22.2 °C 12.4 °C 54 % 22 km/h (33 km/h) 0 mm0 mm 22.7 °C 23.2 °C 6 min 189.9 W/m²
10:00 22.1 °C 12.4 °C 54 % 22 km/h (33 km/h) 0 mm0 mm 22.7 °C 23.2 °C 6 min 183.5 W/m²
09:54 22 °C 12.5 °C 55 % 21 km/h (31 km/h) 0 mm0 mm 22.7 °C 23.2 °C 6 min 177.2 W/m²
09:48 21.6 °C 12.2 °C 55 % 24 km/h (36 km/h) 0 mm0 mm 22.8 °C 23.2 °C 6 min 171.3 W/m²
09:42 21.5 °C 12.1 °C 55 % 23 km/h (36 km/h) 0 mm0 mm 22.8 °C 23.2 °C 6 min 164.6 W/m²
09:36 21.6 °C 12.4 °C 56 % 17 km/h (30 km/h) 0 mm0 mm 22.8 °C 23.3 °C 6 min 157.1 W/m²
09:30 21.3 °C 12.4 °C 57 % 16 km/h (26 km/h) 0 mm0 mm 22.8 °C 23.3 °C 6 min 149.9 W/m²
09:24 21.1 °C 12.2 °C 57 % 16 km/h (24 km/h) 0 mm0 mm 22.8 °C 23.3 °C 6 min 142.4 W/m²
09:18 20.9 °C 12.3 °C 58 % 18 km/h (30 km/h) 0 mm0 mm 22.8 °C 23.3 °C 6 min 135.4 W/m²
09:12 20.7 °C 12.1 °C 58 % 21 km/h (30 km/h) 0 mm0 mm 22.8 °C 23.3 °C 6 min 129.4 W/m²
09:06 20.5 °C 11.9 °C 58 % 21 km/h (30 km/h) 0 mm0 mm 22.8 °C 23.3 °C 6 min 122.2 W/m²
09:00 20.4 °C 12.1 °C 59 % 18 km/h (25 km/h) 0 mm0 mm 22.8 °C 23.3 °C 6 min 115.1 W/m²
08:54 20.2 °C 12.2 °C 60 % 17 km/h (25 km/h) 0 mm0 mm 22.9 °C 23.3 °C 6 min 108.4 W/m²
08:48 19.9 °C 12.2 °C 61 % 17 km/h (24 km/h) 0 mm0 mm 22.9 °C 23.3 °C 6 min 102.4 W/m²
08:42 19.5 °C 12 °C 62 % 16 km/h (23 km/h) 0 mm0 mm 22.9 °C 23.3 °C 6 min 96.1 W/m²
08:36 19.1 °C 12.1 °C 64 % 12 km/h (19 km/h) 0 mm0 mm 22.9 °C 23.3 °C 6 min 89.2 W/m²
08:30 18.8 °C 12.1 °C 65 % 10 km/h (16 km/h) 0 mm0 mm 22.9 °C 23.3 °C 6 min 83.5 W/m²
08:24 18.6 °C 12.3 °C 67 % 8 km/h (15 km/h) 0 mm0 mm 22.9 °C 23.4 °C 6 min 77.7 W/m²
08:18 17.9 °C 12.3 °C 70 % 10 km/h (17 km/h) 0 mm0 mm 22.9 °C 23.4 °C 6 min 72.6 W/m²
08:12 17.5 °C 12 °C 70 % 11 km/h (17 km/h) 0 mm0 mm 23 °C 23.4 °C 6 min 66.9 W/m²
08:06 17.3 °C 12 °C 71 % 11 km/h (15 km/h) 0 mm0 mm 23 °C 23.4 °C 6 min 57.8 W/m²
08:00 17.2 °C 11.9 °C 71 % 12 km/h (16 km/h) 0 mm0 mm 23 °C 23.4 °C 6 min 48 W/m²
07:54 17 °C 11.7 °C 71 % 12 km/h (16 km/h) 0 mm0 mm 23 °C 23.4 °C 3 min 25 W/m²
07:48 17.3 °C 11.6 °C 69 % 12 km/h (20 km/h) 0 mm0 mm 23 °C 23.4 °C 0 min 14.5 W/m²
07:42 18.5 °C 11.6 °C 64 % 12 km/h (20 km/h) 0 mm0 mm 23 °C 23.4 °C 6 min 27.3 W/m²
07:36 18.3 °C 11.4 °C 64 % 12 km/h (21 km/h) 0 mm0 mm 23.1 °C 23.4 °C 6 min 25.2 W/m²
07:30 18.3 °C 11.4 °C 64 % 13 km/h (21 km/h) 0 mm0 mm 23.1 °C 23.4 °C 6 min 20.2 W/m²
07:24 18.2 °C 11.3 °C 64 % 15 km/h (22 km/h) 0 mm0 mm 23.1 °C 23.5 °C 0 min 7.9 W/m²
07:18 18.3 °C 11.4 °C 64 % 17 km/h (24 km/h) 0 mm0 mm 23.1 °C 23.5 °C 0 min 4.8 W/m²
07:12 18.5 °C 11.3 °C 63 % 17 km/h (24 km/h) 0 mm0 mm 23.1 °C 23.5 °C 0 min 0.2 W/m²
07:06 18.4 °C 11.5 °C 64 % 14 km/h (24 km/h) 0 mm0 mm 23.1 °C 23.5 °C 0 min 0 W/m²
07:00 18.3 °C 11.4 °C 64 % 13 km/h (20 km/h) 0 mm0 mm 23.1 °C 23.5 °C 0 min 0 W/m²
06:54 18.3 °C 11.4 °C 64 % 13 km/h (20 km/h) 0 mm0 mm 23.2 °C 23.5 °C 0 min 0 W/m²
06:48 18.3 °C 11.4 °C 64 % 12 km/h (20 km/h) 0 mm0 mm 23.2 °C 23.5 °C 0 min 0 W/m²
06:42 18.5 °C 11.3 °C 63 % 12 km/h (22 km/h) 0 mm0 mm 23.2 °C 23.5 °C 0 min 0 W/m²
06:36 18.7 °C 11.3 °C 62 % 13 km/h (22 km/h) 0 mm0 mm 23.2 °C 23.5 °C 0 min 0 W/m²
06:30 18.8 °C 11.4 °C 62 % 14 km/h (21 km/h) 0 mm0 mm 23.2 °C 23.5 °C 0 min 0 W/m²
06:24 18.9 °C 11.2 °C 61 % 14 km/h (21 km/h) 0 mm0 mm 23.2 °C 23.6 °C 0 min 0 W/m²
06:18 18.8 °C 11.4 °C 62 % 15 km/h (22 km/h) 0 mm0 mm 23.3 °C 23.6 °C 0 min 0 W/m²
06:12 18.6 °C 11.4 °C 63 % 14 km/h (22 km/h) 0 mm0 mm 23.3 °C 23.6 °C 0 min 0 W/m²
06:06 18.2 °C 11.3 °C 64 % 13 km/h (21 km/h) 0 mm0 mm 23.3 °C 23.6 °C 0 min 0 W/m²
06:00 17.9 °C 11.5 °C 66 % 11 km/h (18 km/h) 0 mm0 mm 23.3 °C 23.6 °C 0 min 0 W/m²
05:54 17.2 °C 11.5 °C 69 % 10 km/h (15 km/h) 0 mm0 mm 23.3 °C 23.6 °C 0 min 0 W/m²
05:48 16.8 °C 11.5 °C 71 % 10 km/h (14 km/h) 0 mm0 mm 23.3 °C 23.6 °C 0 min 0 W/m²
05:42 16.8 °C 11.5 °C 71 % 11 km/h (14 km/h) 0 mm0 mm 23.3 °C 23.6 °C 0 min 0 W/m²
05:36 16.8 °C 11.5 °C 71 % 12 km/h (16 km/h) 0 mm0 mm 23.4 °C 23.6 °C 0 min 0 W/m²
05:30 17.1 °C 11.4 °C 69 % 12 km/h (16 km/h) 0 mm0 mm 23.4 °C 23.6 °C 0 min 0 W/m²
05:24 17.4 °C 11.4 °C 68 % 12 km/h (15 km/h) 0 mm0 mm 23.4 °C 23.6 °C 0 min 0 W/m²
05:18 17.6 °C 11.4 °C 67 % 11 km/h (15 km/h) 0 mm0 mm 23.4 °C 23.6 °C 0 min 0 W/m²
05:12 18 °C 11.3 °C 65 % 10 km/h (15 km/h) 0 mm0 mm 23.4 °C 23.7 °C 0 min 0 W/m²
05:06 18.1 °C 11.2 °C 64 % 10 km/h (15 km/h) 0 mm0 mm 23.4 °C 23.7 °C 0 min 0 W/m²
05:00 19.3 °C 11.1 °C 59 % 9 km/h (15 km/h) 0 mm0 mm 23.4 °C 23.7 °C 0 min 0 W/m²
04:54 19.1 °C 11.1 °C 60 % 10 km/h (17 km/h) 0 mm0 mm 23.5 °C 23.7 °C 0 min 0 W/m²
04:48 18.5 °C 11.1 °C 62 % 10 km/h (17 km/h) 0 mm0 mm 23.5 °C 23.7 °C 0 min 0 W/m²
04:42 18.7 °C 11 °C 61 % 9 km/h (13 km/h) 0 mm0 mm 23.5 °C 23.7 °C 0 min 0 W/m²
04:36 19.2 °C 11 °C 59 % 9 km/h (13 km/h) 0 mm0 mm 23.5 °C 23.7 °C 0 min 0 W/m²
04:30 19.8 °C 11.3 °C 58 % 11 km/h (19 km/h) 0 mm0 mm 23.5 °C 23.7 °C 0 min 0 W/m²
04:24 19.9 °C 11.1 °C 57 % 13 km/h (19 km/h) 0 mm0 mm 23.6 °C 23.7 °C 0 min 0 W/m²
04:18 20 °C 11.2 °C 57 % 13 km/h (21 km/h) 0 mm0 mm 23.6 °C 23.7 °C 0 min 0 W/m²
04:12 20 °C 11.2 °C 57 % 13 km/h (20 km/h) 0 mm0 mm 23.6 °C 23.7 °C 0 min 0 W/m²
04:06 19.9 °C 11.1 °C 57 % 14 km/h (19 km/h) 0 mm0 mm 23.6 °C 23.7 °C 0 min 0 W/m²
04:00 19.9 °C 11.1 °C 57 % 14 km/h (19 km/h) 0 mm0 mm 23.6 °C 23.7 °C 0 min 0 W/m²
03:54 19.9 °C 11.1 °C 57 % 13 km/h (18 km/h) 0 mm0 mm 23.6 °C 23.7 °C 0 min 0 W/m²
03:48 20 °C 11.2 °C 57 % 13 km/h (19 km/h) 0 mm0 mm 23.6 °C 23.8 °C 0 min 0 W/m²
03:42 20 °C 11.2 °C 57 % 13 km/h (19 km/h) 0 mm0 mm 23.6 °C 23.8 °C 0 min 0 W/m²
03:36 20 °C 11.2 °C 57 % 14 km/h (19 km/h) 0 mm0 mm 23.7 °C 23.8 °C 0 min 0 W/m²
03:30 20.1 °C 11.6 °C 58 % 14 km/h (20 km/h) 0 mm0 mm 23.7 °C 23.8 °C 0 min 0 W/m²
03:24 20.1 °C 11.6 °C 58 % 14 km/h (20 km/h) 0 mm0 mm 23.7 °C 23.8 °C 0 min 0 W/m²
03:18 20.1 °C 11.8 °C 59 % 14 km/h (19 km/h) 0 mm0 mm 23.7 °C 23.8 °C 0 min 0 W/m²
03:12 20.1 °C 11.8 °C 59 % 14 km/h (20 km/h) 0 mm0 mm 23.7 °C 23.8 °C 0 min 0 W/m²
03:06 20.2 °C 11.9 °C 59 % 15 km/h (20 km/h) 0 mm0 mm 23.7 °C 23.8 °C 0 min 0 W/m²
03:00 20.3 °C 12 °C 59 % 15 km/h (20 km/h) 0 mm0 mm 23.8 °C 23.8 °C 0 min 0 W/m²
02:54 20.3 °C 12 °C 59 % 14 km/h (19 km/h) 0 mm0 mm 23.8 °C 23.8 °C 0 min 0 W/m²
02:48 20.4 °C 11.9 °C 58 % 14 km/h (20 km/h) 0 mm0 mm 23.8 °C 23.8 °C 0 min 0 W/m²
02:42 20.5 °C 11.9 °C 58 % 15 km/h (20 km/h) 0 mm0 mm 23.8 °C 23.8 °C 0 min 0 W/m²
02:36 20.5 °C 11.9 °C 58 % 14 km/h (20 km/h) 0 mm0 mm 23.8 °C 23.8 °C 0 min 0 W/m²
02:30 20.5 °C 11.7 °C 57 % 14 km/h (19 km/h) 0 mm0 mm 23.8 °C 23.8 °C 0 min 0 W/m²
02:24 20.7 °C 11.6 °C 56 % 14 km/h (19 km/h) 0 mm0 mm 23.8 °C 23.8 °C 0 min 0 W/m²
02:18 20.7 °C 11.6 °C 56 % 15 km/h (22 km/h) 0 mm0 mm 23.9 °C 23.8 °C 0 min 0 W/m²
02:12 20.8 °C 11.4 °C 55 % 15 km/h (22 km/h) 0 mm0 mm 23.9 °C 23.9 °C 0 min 0 W/m²
02:06 20.9 °C 11.5 °C 55 % 15 km/h (21 km/h) 0 mm0 mm 23.9 °C 23.9 °C 0 min 0 W/m²
02:00 21 °C 11.6 °C 55 % 15 km/h (21 km/h) 0 mm0 mm 23.9 °C 23.9 °C 0 min 0 W/m²
01:54 21.1 °C 11.4 °C 54 % 15 km/h (21 km/h) 0 mm0 mm 23.9 °C 23.9 °C 0 min 0 W/m²
01:48 21.2 °C 11.5 °C 54 % 15 km/h (21 km/h) 0 mm0 mm 23.9 °C 23.9 °C 0 min 0 W/m²
01:42 21.3 °C 11.3 °C 53 % 14 km/h (22 km/h) 0 mm0 mm 24 °C 23.9 °C 0 min 0 W/m²
01:36 21.2 °C 11.5 °C 54 % 14 km/h (20 km/h) 0 mm0 mm 24 °C 23.9 °C 0 min 0 W/m²
01:30 21.3 °C 11.6 °C 54 % 15 km/h (21 km/h) 0 mm0 mm 24 °C 23.9 °C 0 min 0 W/m²
01:24 21.3 °C 11.6 °C 54 % 16 km/h (21 km/h) 0 mm0 mm 24 °C 23.9 °C 0 min 0 W/m²
01:18 21.4 °C 11.4 °C 53 % 17 km/h (21 km/h) 0 mm0 mm 24 °C 23.9 °C 0 min 0 W/m²
01:12 21.4 °C 11.7 °C 54 % 16 km/h (23 km/h) 0 mm0 mm 24 °C 23.9 °C 0 min 0 W/m²
01:06 21.3 °C 11.6 °C 54 % 14 km/h (21 km/h) 0 mm0 mm 24 °C 23.9 °C 0 min 0 W/m²
01:00 21.3 °C 11.6 °C 54 % 14 km/h (21 km/h) 0 mm0 mm 24.1 °C 23.9 °C 0 min 0 W/m²
00:54 21.5 °C 11.5 °C 53 % 14 km/h (20 km/h) 0 mm0 mm 24.1 °C 23.9 °C 0 min 0 W/m²
00:48 21.5 °C 11.5 °C 53 % 14 km/h (20 km/h) 0 mm0 mm 24.1 °C 23.9 °C 0 min 0 W/m²
00:42 21.5 °C 11.8 °C 54 % 14 km/h (22 km/h) 0 mm0 mm 24.1 °C 23.9 °C 0 min 0 W/m²
00:36 21.5 °C 11.5 °C 53 % 15 km/h (22 km/h) 0 mm0 mm 24.1 °C 23.9 °C 0 min 0 W/m²
00:30 21.7 °C 11.7 °C 53 % 15 km/h (22 km/h) 0 mm0 mm 24.1 °C 23.9 °C 0 min 0 W/m²
00:24 21.8 °C 11.5 °C 52 % 16 km/h (22 km/h) 0 mm0 mm 24.1 °C 23.9 °C 0 min 0 W/m²
00:18 22 °C 11.7 °C 52 % 17 km/h (23 km/h) 0 mm0 mm 24.2 °C 23.9 °C 0 min 0 W/m²
00:12 22.1 °C 11.5 °C 51 % 18 km/h (29 km/h) 0 mm0 mm 24.2 °C 23.9 °C 0 min 0 W/m²
00:06 22.4 °C 11.5 °C 50 % 18 km/h (29 km/h) 0 mm0 mm 24.2 °C 24 °C 0 min 0 W/m²
00:00 22.5 °C 11.6 °C 50 % 18 km/h (27 km/h) 0 mm0 mm 24.2 °C 24 °C 0 min 0 W/m²

Données via Météo-France

Relevés météo à Etoile

Cette page rassemble les observations de la station de Etoile : température, humidité, vent, précipitations et pression atmosphérique. Les graphiques facilitent le suivi de la journée, tandis que le tableau donne accès aux mesures horaires et infra-horaires disponibles.

Pour replacer ces mesures dans leur contexte, consultez la climatologie de Etoile ainsi que ses normales et records. Retrouvez aussi la carte des observations météo en temps réel.